AAL1443 KLAS-KPHX
Flight info
| Callsign | AAL1443 |
|---|---|
| Flight time | 0h 49m |
| Altitude | 29000 |
| Route | RASLR3 ZAYNE WOTRO BRUSR1 |
| Aircraft | A321/M-SDE3FGHIRWY/LB1 |
Departure
| Time | 2026-05-05 20:04 |
|---|---|
| Airport | Harry Reid International Airport (KLAS) |
Arrival
| Time | 2026-05-05 20:54 |
|---|---|
| Airport | Phoenix Sky Harbor International Airport (KPHX) |
| Time | Latitude | Longitude | Altitude | Speed | Heading |
|---|---|---|---|---|---|
| 2026-05-05 19:47 | 36.08080 | -115.13477 | 2114 ft | 0 kts | 241° |
| 2026-05-05 19:57 | 36.08082 | -115.13471 | 2113 ft | 4 kts | 240° |
| 2026-05-05 19:57 | 36.08092 | -115.13452 | 2114 ft | 4 kts | 234° |
| 2026-05-05 19:57 | 36.08116 | -115.13421 | 2113 ft | 4 kts | 195° |
| 2026-05-05 19:57 | 36.08132 | -115.13422 | 2110 ft | 1 kts | 135° |
| 2026-05-05 20:00 | 36.08111 | -115.13399 | 2111 ft | 12 kts | 140° |
| 2026-05-05 20:00 | 36.08024 | -115.13376 | 2115 ft | 12 kts | 180° |
| 2026-05-05 20:01 | 36.07930 | -115.13375 | 2121 ft | 18 kts | 179° |
| 2026-05-05 20:01 | 36.07780 | -115.13373 | 2127 ft | 19 kts | 169° |
| 2026-05-05 20:01 | 36.07754 | -115.13247 | 2125 ft | 17 kts | 89° |
| 2026-05-05 20:01 | 36.07754 | -115.13051 | 2122 ft | 32 kts | 90° |
| 2026-05-05 20:02 | 36.07754 | -115.12773 | 2120 ft | 33 kts | 90° |
| 2026-05-05 20:02 | 36.07755 | -115.12519 | 2119 ft | 32 kts | 89° |
| 2026-05-05 20:02 | 36.07755 | -115.12252 | 2120 ft | 31 kts | 90° |
| 2026-05-05 20:02 | 36.07724 | -115.12133 | 2123 ft | 10 kts | 152° |
| 2026-05-05 20:03 | 36.07663 | -115.12129 | 2125 ft | 8 kts | 191° |
| 2026-05-05 20:03 | 36.07643 | -115.12182 | 2125 ft | 8 kts | 270° |
| 2026-05-05 20:03 | 36.07643 | -115.12353 | 2122 ft | 49 kts | 270° |
| 2026-05-05 20:03 | 36.07641 | -115.13061 | 2125 ft | 113 kts | 270° |
| 2026-05-05 20:04 | 36.07640 | -115.14248 | 2123 ft | 164 kts | 270° |
| 2026-05-05 20:04 | 36.07641 | -115.15505 | 2324 ft | 181 kts | 268° |
| 2026-05-05 20:04 | 36.07645 | -115.17038 | 3230 ft | 170 kts | 269° |
| 2026-05-05 20:04 | 36.07643 | -115.18501 | 3805 ft | 175 kts | 269° |
| 2026-05-05 20:05 | 36.07626 | -115.20078 | 4117 ft | 190 kts | 268° |
| 2026-05-05 20:05 | 36.07463 | -115.21768 | 4369 ft | 206 kts | 256° |
| 2026-05-05 20:05 | 36.07135 | -115.23566 | 4581 ft | 222 kts | 257° |
| 2026-05-05 20:05 | 36.06544 | -115.25391 | 4781 ft | 239 kts | 232° |
| 2026-05-05 20:06 | 36.05201 | -115.26682 | 4950 ft | 259 kts | 201° |
| 2026-05-05 20:06 | 36.03390 | -115.27165 | 5344 ft | 271 kts | 193° |
| 2026-05-05 20:06 | 36.01567 | -115.27778 | 6062 ft | 272 kts | 194° |
| 2026-05-05 20:06 | 35.99690 | -115.28072 | 6737 ft | 275 kts | 177° |
| 2026-05-05 20:07 | 35.97822 | -115.27542 | 7365 ft | 279 kts | 155° |
| 2026-05-05 20:07 | 35.96224 | -115.26177 | 8006 ft | 282 kts | 139° |
| 2026-05-05 20:07 | 35.94750 | -115.24548 | 8669 ft | 285 kts | 138° |
| 2026-05-05 20:07 | 35.93286 | -115.22922 | 9327 ft | 288 kts | 138° |
| 2026-05-05 20:08 | 35.91794 | -115.21203 | 9976 ft | 291 kts | 131° |
| 2026-05-05 20:08 | 35.90620 | -115.19202 | 10536 ft | 296 kts | 120° |
| 2026-05-05 20:08 | 35.89533 | -115.16941 | 10677 ft | 317 kts | 121° |
| 2026-05-05 20:08 | 35.88373 | -115.14534 | 10807 ft | 336 kts | 121° |
| 2026-05-05 20:09 | 35.87158 | -115.11990 | 11020 ft | 351 kts | 118° |
| 2026-05-05 20:09 | 35.86196 | -115.09204 | 11501 ft | 356 kts | 108° |
| 2026-05-05 20:09 | 35.85489 | -115.06263 | 12047 ft | 359 kts | 107° |
| 2026-05-05 20:09 | 35.84775 | -115.03291 | 12623 ft | 362 kts | 107° |
| 2026-05-05 20:10 | 35.84051 | -115.00295 | 13163 ft | 365 kts | 107° |
| 2026-05-05 20:10 | 35.83319 | -114.97288 | 13751 ft | 367 kts | 107° |
| 2026-05-05 20:10 | 35.82581 | -114.94259 | 14246 ft | 370 kts | 107° |
| 2026-05-05 20:10 | 35.81838 | -114.91211 | 14764 ft | 372 kts | 107° |
| 2026-05-05 20:11 | 35.81104 | -114.88185 | 15253 ft | 375 kts | 107° |
| 2026-05-05 20:11 | 35.80354 | -114.85093 | 15745 ft | 377 kts | 107° |
| 2026-05-05 20:11 | 35.79598 | -114.81976 | 16250 ft | 380 kts | 107° |
| 2026-05-05 20:11 | 35.78838 | -114.78846 | 16744 ft | 383 kts | 107° |
| 2026-05-05 20:12 | 35.78071 | -114.75687 | 17202 ft | 386 kts | 106° |
| 2026-05-05 20:12 | 35.77299 | -114.72517 | 17683 ft | 388 kts | 106° |
| 2026-05-05 20:12 | 35.76516 | -114.69320 | 18153 ft | 391 kts | 106° |
| 2026-05-05 20:12 | 35.75727 | -114.66104 | 18568 ft | 393 kts | 107° |
| 2026-05-05 20:13 | 35.74935 | -114.62874 | 18940 ft | 395 kts | 106° |
| 2026-05-05 20:13 | 35.74138 | -114.59628 | 19345 ft | 397 kts | 106° |
| 2026-05-05 20:13 | 35.73346 | -114.56411 | 19754 ft | 399 kts | 106° |
| 2026-05-05 20:13 | 35.72539 | -114.53141 | 20169 ft | 400 kts | 106° |
| 2026-05-05 20:14 | 35.71727 | -114.49856 | 20564 ft | 402 kts | 105° |
| 2026-05-05 20:14 | 35.70902 | -114.46564 | 20947 ft | 404 kts | 108° |
| 2026-05-05 20:14 | 35.69746 | -114.43393 | 21346 ft | 408 kts | 119° |
| 2026-05-05 20:14 | 35.68132 | -114.40505 | 21714 ft | 412 kts | 129° |
| 2026-05-05 20:15 | 35.66108 | -114.38008 | 22075 ft | 415 kts | 139° |
| 2026-05-05 20:15 | 35.63911 | -114.35700 | 22488 ft | 416 kts | 138° |
| 2026-05-05 20:15 | 35.61704 | -114.33374 | 22859 ft | 419 kts | 138° |
| 2026-05-05 20:15 | 35.59485 | -114.31035 | 23224 ft | 421 kts | 139° |
| 2026-05-05 20:16 | 35.57255 | -114.28681 | 23559 ft | 424 kts | 139° |
| 2026-05-05 20:16 | 35.55013 | -114.26317 | 23904 ft | 426 kts | 139° |
| 2026-05-05 20:16 | 35.52753 | -114.23936 | 24163 ft | 428 kts | 139° |
| 2026-05-05 20:16 | 35.50484 | -114.21548 | 24482 ft | 430 kts | 139° |
| 2026-05-05 20:17 | 35.48204 | -114.19154 | 24805 ft | 432 kts | 139° |
| 2026-05-05 20:17 | 35.45944 | -114.16781 | 25122 ft | 434 kts | 139° |
| 2026-05-05 20:17 | 35.43643 | -114.14366 | 25442 ft | 436 kts | 139° |
| 2026-05-05 20:17 | 35.41333 | -114.11941 | 25727 ft | 439 kts | 140° |
| 2026-05-05 20:18 | 35.39007 | -114.09500 | 26034 ft | 441 kts | 140° |
| 2026-05-05 20:18 | 35.36670 | -114.07051 | 26341 ft | 443 kts | 140° |
| 2026-05-05 20:18 | 35.34342 | -114.04572 | 26631 ft | 445 kts | 137° |
| 2026-05-05 20:18 | 35.32267 | -114.01736 | 26911 ft | 449 kts | 128° |
| 2026-05-05 20:19 | 35.30598 | -113.98485 | 27183 ft | 453 kts | 118° |
| 2026-05-05 20:19 | 35.29390 | -113.94919 | 27452 ft | 457 kts | 108° |
| 2026-05-05 20:19 | 35.28582 | -113.91137 | 27729 ft | 459 kts | 105° |
| 2026-05-05 20:19 | 35.27805 | -113.87341 | 28013 ft | 460 kts | 105° |
| 2026-05-05 20:20 | 35.27014 | -113.83535 | 28257 ft | 463 kts | 106° |
| 2026-05-05 20:20 | 35.26211 | -113.79701 | 28378 ft | 467 kts | 106° |
| 2026-05-05 20:20 | 35.25401 | -113.75836 | 28541 ft | 471 kts | 106° |
| 2026-05-05 20:20 | 35.24595 | -113.71995 | 28707 ft | 473 kts | 107° |
| 2026-05-05 20:21 | 35.23776 | -113.68090 | 28872 ft | 475 kts | 107° |
| 2026-05-05 20:21 | 35.22159 | -113.60194 | 28873 ft | 484 kts | 105° |
| 2026-05-05 20:22 | 35.20645 | -113.52097 | 28835 ft | 492 kts | 104° |
| 2026-05-05 20:22 | 35.19143 | -113.43903 | 28831 ft | 494 kts | 105° |
| 2026-05-05 20:23 | 35.17580 | -113.35695 | 28831 ft | 497 kts | 108° |
| 2026-05-05 20:23 | 35.14730 | -113.28118 | 28830 ft | 488 kts | 128° |
| 2026-05-05 20:24 | 35.10914 | -113.21220 | 28832 ft | 490 kts | 128° |
| 2026-05-05 20:24 | 35.07154 | -113.14330 | 28832 ft | 491 kts | 128° |
| 2026-05-05 20:25 | 35.03427 | -113.07503 | 28086 ft | 467 kts | 128° |
| 2026-05-05 20:25 | 35.01645 | -113.04257 | 27230 ft | 453 kts | 128° |
| 2026-05-05 20:25 | 34.99929 | -113.01148 | 26953 ft | 433 kts | 128° |
| 2026-05-05 20:25 | 34.98243 | -112.98115 | 26691 ft | 429 kts | 128° |
| 2026-05-05 20:26 | 34.96568 | -112.95111 | 26421 ft | 427 kts | 129° |
| 2026-05-05 20:26 | 34.94906 | -112.92131 | 26169 ft | 424 kts | 128° |
| 2026-05-05 20:26 | 34.93248 | -112.89161 | 25917 ft | 422 kts | 128° |
| 2026-05-05 20:26 | 34.91603 | -112.86213 | 25666 ft | 419 kts | 128° |
| 2026-05-05 20:27 | 34.89965 | -112.83275 | 25417 ft | 417 kts | 128° |
| 2026-05-05 20:27 | 34.88339 | -112.80359 | 25172 ft | 415 kts | 127° |
| 2026-05-05 20:27 | 34.86737 | -112.77485 | 24917 ft | 413 kts | 127° |
| 2026-05-05 20:27 | 34.85130 | -112.74603 | 24670 ft | 410 kts | 127° |
| 2026-05-05 20:28 | 34.83534 | -112.71739 | 24435 ft | 408 kts | 127° |
| 2026-05-05 20:28 | 34.81944 | -112.68892 | 24198 ft | 406 kts | 127° |
| 2026-05-05 20:28 | 34.80358 | -112.66055 | 23967 ft | 404 kts | 127° |
| 2026-05-05 20:28 | 34.78777 | -112.63232 | 23796 ft | 402 kts | 127° |
| 2026-05-05 20:29 | 34.77195 | -112.60410 | 23827 ft | 403 kts | 127° |
| 2026-05-05 20:29 | 34.75612 | -112.57584 | 23830 ft | 404 kts | 126° |
| 2026-05-05 20:29 | 34.74029 | -112.54766 | 23829 ft | 404 kts | 127° |
| 2026-05-05 20:29 | 34.72446 | -112.51944 | 23831 ft | 403 kts | 127° |
| 2026-05-05 20:30 | 34.70821 | -112.49162 | 23990 ft | 402 kts | 132° |
| 2026-05-05 20:30 | 34.68930 | -112.46735 | 23835 ft | 400 kts | 142° |
| 2026-05-05 20:30 | 34.66787 | -112.44594 | 23223 ft | 397 kts | 143° |
| 2026-05-05 20:30 | 34.64651 | -112.42519 | 22795 ft | 391 kts | 144° |
| 2026-05-05 20:31 | 34.62529 | -112.40462 | 22357 ft | 388 kts | 144° |
| 2026-05-05 20:31 | 34.60425 | -112.38421 | 21918 ft | 386 kts | 145° |
| 2026-05-05 20:31 | 34.58337 | -112.36390 | 21494 ft | 384 kts | 145° |
| 2026-05-05 20:31 | 34.56262 | -112.34366 | 21052 ft | 381 kts | 145° |
| 2026-05-05 20:32 | 34.54214 | -112.32362 | 20608 ft | 378 kts | 144° |
| 2026-05-05 20:32 | 34.52171 | -112.30363 | 20171 ft | 375 kts | 144° |
| 2026-05-05 20:32 | 34.50141 | -112.28380 | 19734 ft | 372 kts | 145° |
| 2026-05-05 20:32 | 34.48121 | -112.26413 | 19300 ft | 370 kts | 145° |
| 2026-05-05 20:33 | 34.46103 | -112.24513 | 18907 ft | 363 kts | 150° |
| 2026-05-05 20:33 | 34.43940 | -112.23101 | 18653 ft | 345 kts | 161° |
| 2026-05-05 20:33 | 34.41670 | -112.22250 | 18409 ft | 339 kts | 171° |
| 2026-05-05 20:33 | 34.39371 | -112.21656 | 18048 ft | 337 kts | 171° |
| 2026-05-05 20:34 | 34.37078 | -112.21062 | 17685 ft | 336 kts | 171° |
| 2026-05-05 20:34 | 34.34823 | -112.20480 | 17351 ft | 334 kts | 171° |
| 2026-05-05 20:34 | 34.32553 | -112.19891 | 17044 ft | 332 kts | 171° |
| 2026-05-05 20:34 | 34.30293 | -112.19304 | 16739 ft | 331 kts | 171° |
| 2026-05-05 20:35 | 34.28043 | -112.18722 | 16399 ft | 330 kts | 171° |
| 2026-05-05 20:35 | 34.25805 | -112.18142 | 16067 ft | 329 kts | 171° |
| 2026-05-05 20:35 | 34.23573 | -112.17564 | 15728 ft | 327 kts | 172° |
| 2026-05-05 20:35 | 34.21346 | -112.16987 | 15394 ft | 326 kts | 171° |
| 2026-05-05 20:36 | 34.19135 | -112.16418 | 15057 ft | 324 kts | 171° |
| 2026-05-05 20:36 | 34.16931 | -112.15852 | 14727 ft | 323 kts | 172° |
| 2026-05-05 20:36 | 34.14733 | -112.15286 | 14393 ft | 321 kts | 172° |
| 2026-05-05 20:36 | 34.12560 | -112.14725 | 14091 ft | 316 kts | 172° |
| 2026-05-05 20:37 | 34.10454 | -112.14179 | 13964 ft | 304 kts | 172° |
| 2026-05-05 20:37 | 34.09066 | -112.13818 | 13785 ft | 299 kts | 171° |
| 2026-05-05 20:37 | 34.06457 | -112.12817 | 13422 ft | 296 kts | 165° |
| 2026-05-05 20:37 | 34.04520 | -112.12024 | 13158 ft | 293 kts | 166° |
| 2026-05-05 20:38 | 34.02597 | -112.11243 | 12891 ft | 291 kts | 165° |
| 2026-05-05 20:38 | 34.00683 | -112.10467 | 12622 ft | 290 kts | 165° |
| 2026-05-05 20:38 | 33.98777 | -112.09693 | 12457 ft | 288 kts | 165° |
| 2026-05-05 20:38 | 33.96882 | -112.08924 | 12226 ft | 287 kts | 165° |
| 2026-05-05 20:39 | 33.94986 | -112.08154 | 11962 ft | 286 kts | 165° |
| 2026-05-05 20:39 | 33.93105 | -112.07391 | 11693 ft | 285 kts | 165° |
| 2026-05-05 20:39 | 33.91224 | -112.06628 | 11425 ft | 283 kts | 165° |
| 2026-05-05 20:39 | 33.89381 | -112.05878 | 11168 ft | 282 kts | 165° |
| 2026-05-05 20:40 | 33.87522 | -112.05123 | 10895 ft | 281 kts | 165° |
| 2026-05-05 20:40 | 33.85678 | -112.04375 | 10606 ft | 278 kts | 164° |
| 2026-05-05 20:40 | 33.83842 | -112.03631 | 10333 ft | 278 kts | 165° |
| 2026-05-05 20:40 | 33.82024 | -112.02893 | 10057 ft | 276 kts | 165° |
| 2026-05-05 20:41 | 33.80268 | -112.02177 | 9798 ft | 277 kts | 163° |
| 2026-05-05 20:41 | 33.78474 | -112.01448 | 9491 ft | 274 kts | 163° |
| 2026-05-05 20:41 | 33.76664 | -112.00716 | 9210 ft | 272 kts | 165° |
| 2026-05-05 20:41 | 33.74870 | -111.99993 | 9066 ft | 272 kts | 165° |
| 2026-05-05 20:42 | 33.73074 | -111.99269 | 8996 ft | 273 kts | 164° |
| 2026-05-05 20:42 | 33.71262 | -111.98540 | 8925 ft | 274 kts | 164° |
| 2026-05-05 20:42 | 33.69448 | -111.97808 | 8835 ft | 275 kts | 165° |
| 2026-05-05 20:42 | 33.68258 | -111.97328 | 8762 ft | 269 kts | 164° |
| 2026-05-05 20:43 | 33.66512 | -111.96624 | 8628 ft | 258 kts | 166° |
| 2026-05-05 20:43 | 33.64293 | -111.95728 | 8454 ft | 252 kts | 164° |
| 2026-05-05 20:43 | 33.62633 | -111.95054 | 8329 ft | 251 kts | 165° |
| 2026-05-05 20:43 | 33.61517 | -111.94602 | 8184 ft | 250 kts | 165° |
| 2026-05-05 20:44 | 33.59877 | -111.93937 | 7893 ft | 248 kts | 165° |
| 2026-05-05 20:44 | 33.58242 | -111.93276 | 7578 ft | 249 kts | 165° |
| 2026-05-05 20:44 | 33.56596 | -111.92610 | 7252 ft | 251 kts | 165° |
| 2026-05-05 20:44 | 33.54965 | -111.91934 | 7081 ft | 246 kts | 161° |
| 2026-05-05 20:45 | 33.52802 | -111.88771 | 7031 ft | 267 kts | 100° |
| 2026-05-05 20:45 | 33.52717 | -111.86536 | 7034 ft | 270 kts | 94° |
| 2026-05-05 20:45 | 33.52701 | -111.84328 | 7029 ft | 269 kts | 91° |
| 2026-05-05 20:46 | 33.52735 | -111.82082 | 6856 ft | 269 kts | 91° |
| 2026-05-05 20:46 | 33.52798 | -111.79838 | 6485 ft | 269 kts | 90° |
| 2026-05-05 20:46 | 33.52866 | -111.77594 | 6093 ft | 267 kts | 91° |
| 2026-05-05 20:46 | 33.52929 | -111.75403 | 5728 ft | 267 kts | 91° |
| 2026-05-05 20:47 | 33.52745 | -111.73231 | 5354 ft | 257 kts | 112° |
| 2026-05-05 20:47 | 33.51962 | -111.71439 | 5091 ft | 231 kts | 134° |
| 2026-05-05 20:47 | 33.50789 | -111.70236 | 4891 ft | 220 kts | 155° |
| 2026-05-05 20:47 | 33.49379 | -111.69628 | 4706 ft | 214 kts | 174° |
| 2026-05-05 20:48 | 33.47894 | -111.69647 | 4505 ft | 213 kts | 193° |
| 2026-05-05 20:48 | 33.46516 | -111.70265 | 4299 ft | 213 kts | 213° |
| 2026-05-05 20:48 | 33.45395 | -111.71397 | 4123 ft | 211 kts | 230° |
| 2026-05-05 20:48 | 33.44618 | -111.72875 | 4024 ft | 211 kts | 240° |
| 2026-05-05 20:49 | 33.44133 | -111.74525 | 4018 ft | 215 kts | 259° |
| 2026-05-05 20:49 | 33.44032 | -111.76298 | 4024 ft | 205 kts | 266° |
| 2026-05-05 20:49 | 33.44031 | -111.77950 | 4016 ft | 197 kts | 268° |
| 2026-05-05 20:49 | 33.44037 | -111.79571 | 4014 ft | 193 kts | 267° |
| 2026-05-05 20:50 | 33.44041 | -111.81191 | 3972 ft | 195 kts | 269° |
| 2026-05-05 20:50 | 33.44046 | -111.82810 | 3782 ft | 193 kts | 269° |
| 2026-05-05 20:50 | 33.44051 | -111.84362 | 3553 ft | 177 kts | 269° |
| 2026-05-05 20:50 | 33.44055 | -111.85656 | 3360 ft | 161 kts | 268° |
| 2026-05-05 20:51 | 33.44058 | -111.86982 | 3129 ft | 147 kts | 267° |
| 2026-05-05 20:51 | 33.44061 | -111.88192 | 2937 ft | 146 kts | 269° |
| 2026-05-05 20:51 | 33.44063 | -111.89391 | 2755 ft | 144 kts | 270° |
| 2026-05-05 20:51 | 33.44066 | -111.90590 | 2567 ft | 143 kts | 268° |
| 2026-05-05 20:52 | 33.44068 | -111.91770 | 2388 ft | 141 kts | 268° |
| 2026-05-05 20:52 | 33.44070 | -111.92922 | 2213 ft | 141 kts | 268° |
| 2026-05-05 20:52 | 33.44068 | -111.94097 | 2025 ft | 142 kts | 267° |
| 2026-05-05 20:52 | 33.44074 | -111.95302 | 1828 ft | 146 kts | 269° |
| 2026-05-05 20:53 | 33.44072 | -111.96494 | 1648 ft | 144 kts | 267° |
| 2026-05-05 20:53 | 33.44089 | -111.97678 | 1409 ft | 147 kts | 269° |
| 2026-05-05 20:53 | 33.44086 | -111.98891 | 1240 ft | 143 kts | 268° |
| 2026-05-05 20:53 | 33.44086 | -112.00037 | 1137 ft | 127 kts | 268° |
| 2026-05-05 20:54 | 33.44084 | -112.00910 | 1130 ft | 80 kts | 270° |
| 2026-05-05 20:54 | 33.44077 | -112.01300 | 1135 ft | 21 kts | 252° |
| 2026-05-05 20:54 | 33.43984 | -112.01421 | 1132 ft | 19 kts | 217° |
| 2026-05-05 20:54 | 33.43899 | -112.01378 | 1131 ft | 17 kts | 98° |
| 2026-05-05 20:55 | 33.43902 | -112.01234 | 1131 ft | 18 kts | 90° |
| 2026-05-05 20:55 | 33.43901 | -112.01084 | 1131 ft | 18 kts | 90° |
| 2026-05-05 20:55 | 33.43900 | -112.00926 | 1131 ft | 19 kts | 90° |
| 2026-05-05 20:55 | 33.43901 | -112.00762 | 1131 ft | 20 kts | 89° |
| 2026-05-05 20:56 | 33.43901 | -112.00593 | 1131 ft | 21 kts | 90° |
| 2026-05-05 20:56 | 33.43904 | -112.00399 | 1131 ft | 25 kts | 89° |
| 2026-05-05 20:56 | 33.43904 | -112.00193 | 1131 ft | 25 kts | 90° |
| 2026-05-05 20:56 | 33.43905 | -111.99984 | 1131 ft | 25 kts | 90° |
| 2026-05-05 20:57 | 33.43877 | -111.99838 | 1131 ft | 15 kts | 148° |
| 2026-05-05 20:57 | 33.43778 | -111.99829 | 1133 ft | 9 kts | 184° |
| 2026-05-05 20:57 | 33.43759 | -111.99869 | 1131 ft | 5 kts | 268° |
| 2026-05-05 20:57 | 33.43758 | -111.99882 | 1132 ft | 0 kts | 268° |